createdAt,value
2023-01-04T00:01:00.089Z,4.20
2023-01-04T00:06:06.779Z,3.70
2023-01-04T00:11:15.000Z,3.60
2023-01-04T00:16:21.172Z,3.80
2023-01-04T00:26:30.294Z,3.90
2023-01-04T00:31:34.783Z,3.90
2023-01-04T00:36:37.517Z,3.90
2023-01-04T00:42:02.016Z,3.70
2023-01-04T00:47:05.208Z,3.30
2023-01-04T00:52:08.308Z,4.00
2023-01-04T00:57:10.962Z,4.90
2023-01-04T01:02:13.847Z,4.40
2023-01-04T01:07:16.594Z,3.00
2023-01-04T01:12:19.270Z,5.80
2023-01-04T01:17:21.936Z,3.50
2023-01-04T01:22:24.598Z,4.10
2023-01-04T01:27:28.751Z,4.10
2023-01-04T01:32:31.402Z,3.60
2023-01-04T01:37:34.019Z,3.40
2023-01-04T01:42:36.689Z,3.80
2023-01-04T01:47:45.031Z,3.70
2023-01-04T01:52:48.596Z,6.10
2023-01-04T01:57:53.768Z,5.00
2023-01-04T02:03:01.399Z,4.40
2023-01-04T02:08:06.228Z,5.30
2023-01-04T02:13:14.693Z,3.90
2023-01-04T02:18:25.354Z,5.10
2023-01-04T02:23:34.924Z,5.20
2023-01-04T02:28:39.543Z,5.50
2023-01-04T02:33:45.209Z,5.40
2023-01-04T02:38:58.272Z,5.90
2023-01-04T02:44:04.774Z,5.70
2023-01-04T02:49:10.418Z,5.80
2023-01-04T02:54:20.183Z,5.80
2023-01-04T02:59:45.935Z,5.40
2023-01-04T03:04:55.501Z,5.70
2023-01-04T03:10:21.214Z,5.40
2023-01-04T03:15:26.484Z,5.90
2023-01-04T03:20:31.390Z,4.70
2023-01-04T03:25:45.240Z,3.50
2023-01-04T03:31:22.337Z,4.90
2023-01-04T03:36:32.434Z,5.30
2023-01-04T03:41:40.404Z,4.80
2023-01-04T03:46:52.581Z,5.70
2023-01-04T03:51:58.809Z,5.50
2023-01-04T03:57:02.741Z,6.40
2023-01-04T04:02:08.241Z,6.40
2023-01-04T04:07:13.861Z,6.00
2023-01-04T04:12:16.537Z,3.70
2023-01-04T04:17:19.166Z,6.80
2023-01-04T04:22:21.796Z,7.80
2023-01-04T04:27:24.615Z,6.50
2023-01-04T04:32:27.298Z,6.80
2023-01-04T04:37:32.001Z,5.60
2023-01-04T04:42:34.843Z,7.10
2023-01-04T04:47:37.517Z,4.50
2023-01-04T04:52:41.546Z,8.10
2023-01-04T04:57:44.228Z,7.20
2023-01-04T05:02:46.965Z,5.10
2023-01-04T05:07:49.657Z,7.10
2023-01-04T05:12:57.934Z,6.30
2023-01-04T05:18:01.615Z,8.50
2023-01-04T05:23:04.988Z,7.40
2023-01-04T05:28:09.137Z,6.90
2023-01-04T05:33:12.513Z,7.50
2023-01-04T05:38:16.212Z,8.80
2023-01-04T05:43:20.477Z,9.30
2023-01-04T05:48:24.722Z,7.60
2023-01-04T05:53:27.362Z,7.40
2023-01-04T05:58:30.156Z,8.50
2023-01-04T06:03:32.949Z,8.10
2023-01-04T06:08:35.662Z,8.00
2023-01-04T06:13:38.273Z,7.10
2023-01-04T06:18:40.909Z,8.60
2023-01-04T06:23:43.550Z,8.00
2023-01-04T06:28:46.185Z,7.20
2023-01-04T06:33:48.923Z,7.40
2023-01-04T06:38:52.591Z,7.80
2023-01-04T07:31:23.827Z,9.60
2023-01-04T07:36:25.934Z,9.30
2023-01-04T07:41:28.572Z,10.50
2023-01-04T07:46:32.111Z,9.70
2023-01-04T07:51:34.789Z,8.90
2023-01-04T07:56:37.718Z,9.10
2023-01-04T08:01:41.134Z,10.00
2023-01-04T08:06:46.611Z,9.30
2023-01-04T08:11:49.677Z,9.30
2023-01-04T08:16:53.035Z,8.90
2023-01-04T08:51:54.342Z,8.20
2023-01-04T09:12:53.848Z,10.00
2023-01-04T09:18:30.727Z,8.90
2023-01-04T09:23:21.793Z,9.40
2023-01-04T09:28:26.999Z,9.60
2023-01-04T09:34:03.560Z,9.80
2023-01-04T09:38:52.936Z,11.40
2023-01-04T09:44:04.308Z,10.40
2023-01-04T09:49:24.367Z,11.60
2023-01-04T09:54:35.175Z,11.20
2023-01-04T09:59:39.042Z,12.30
2023-01-04T10:04:44.617Z,13.00
2023-01-04T10:09:47.382Z,11.70
2023-01-04T10:14:50.000Z,11.30
2023-01-04T10:25:29.483Z,11.70
2023-01-04T10:30:36.158Z,11.10
2023-01-04T10:35:41.004Z,11.10
2023-01-04T10:40:47.331Z,12.00
2023-01-04T10:51:09.308Z,11.90
2023-01-04T10:56:25.430Z,10.80
2023-01-04T11:01:35.236Z,12.10
2023-01-04T11:06:44.850Z,12.60
2023-01-04T11:11:48.463Z,10.60
2023-01-04T11:16:56.539Z,5.80
2023-01-04T11:22:05.961Z,6.40
2023-01-04T11:27:16.020Z,5.80
2023-01-04T11:32:35.379Z,11.80
2023-01-04T11:37:40.271Z,11.80
2023-01-04T11:42:49.361Z,11.60
2023-01-04T11:47:57.063Z,11.90
2023-01-04T11:52:59.772Z,11.50
2023-01-04T11:58:07.016Z,9.70
2023-01-04T12:03:14.128Z,11.80
2023-01-04T12:08:29.340Z,11.80
2023-01-04T12:13:34.238Z,11.40
2023-01-04T12:18:41.800Z,12.00
2023-01-04T12:23:44.655Z,13.80
2023-01-04T12:28:50.333Z,11.50
2023-01-04T12:33:57.317Z,12.10
2023-01-04T12:39:22.778Z,12.70
2023-01-04T12:44:31.254Z,10.90
2023-01-04T12:49:39.719Z,12.80
2023-01-04T12:54:47.597Z,11.10
2023-01-04T12:59:54.516Z,9.50
2023-01-04T13:05:53.488Z,7.40
2023-01-04T13:10:31.358Z,8.40
2023-01-04T13:15:39.793Z,6.50
2023-01-04T13:20:42.772Z,9.40
2023-01-04T13:25:45.519Z,6.30
2023-01-04T13:30:48.328Z,9.10
2023-01-04T13:35:56.795Z,8.80
2023-01-04T13:40:59.520Z,8.80
2023-01-04T13:46:17.044Z,7.90
2023-01-04T13:51:22.573Z,9.30
2023-01-04T13:56:28.102Z,11.50
2023-01-04T14:01:35.558Z,12.60
2023-01-04T14:06:44.659Z,9.90
2023-01-04T14:11:54.098Z,12.00
2023-01-04T14:17:02.520Z,9.30
2023-01-04T14:22:11.184Z,9.00
2023-01-04T14:27:19.587Z,11.80
2023-01-04T14:32:22.464Z,12.00
2023-01-04T14:37:25.176Z,11.50
2023-01-04T14:42:31.091Z,12.50
2023-01-04T14:47:33.689Z,10.80
2023-01-04T14:53:02.369Z,10.30
2023-01-04T14:58:04.992Z,8.30
2023-01-04T15:03:09.665Z,9.30
2023-01-04T15:08:13.318Z,9.60
2023-01-04T15:13:16.281Z,8.80
2023-01-04T15:18:18.995Z,8.20
2023-01-04T15:23:21.654Z,8.00
2023-01-04T15:28:26.232Z,9.80
2023-01-04T15:33:32.094Z,7.70
2023-01-04T15:38:35.166Z,8.80
2023-01-04T15:43:38.263Z,7.50
2023-01-04T15:48:40.889Z,8.70
2023-01-04T15:53:43.652Z,7.30
2023-01-04T15:58:46.842Z,7.30
2023-01-04T16:03:53.392Z,7.20
2023-01-04T16:08:58.772Z,6.40
2023-01-04T16:14:02.086Z,7.60
2023-01-04T16:19:05.744Z,6.20
2023-01-04T16:24:29.519Z,7.20
2023-01-04T16:29:32.757Z,6.90
2023-01-04T16:34:36.418Z,7.00
2023-01-04T16:45:01.754Z,7.60
2023-01-04T16:50:04.871Z,6.80
2023-01-04T16:55:08.658Z,6.90
2023-01-04T17:00:11.751Z,5.40
2023-01-04T17:05:14.558Z,7.90
2023-01-04T17:10:17.348Z,7.40
2023-01-04T17:20:42.686Z,5.20
2023-01-04T17:25:45.369Z,4.90
2023-01-04T17:30:48.973Z,6.20
2023-01-04T17:35:51.680Z,6.60
2023-01-04T17:42:09.995Z,6.50
2023-01-04T17:47:12.623Z,5.30
2023-01-04T17:52:22.223Z,4.90
2023-01-04T17:57:29.738Z,4.70
2023-01-04T18:02:33.478Z,5.80
2023-01-04T18:07:36.346Z,5.60
2023-01-04T18:12:39.041Z,5.70
2023-01-04T18:17:41.693Z,4.60
2023-01-04T18:22:44.483Z,5.20
2023-01-04T18:27:47.123Z,4.50
2023-01-04T18:32:49.783Z,5.00
2023-01-04T18:37:52.422Z,3.60
2023-01-04T18:42:55.085Z,3.50
2023-01-04T18:47:57.779Z,4.00
2023-01-04T18:53:00.515Z,4.20
2023-01-04T18:58:03.362Z,4.60
2023-01-04T19:03:06.147Z,4.60
2023-01-04T19:08:08.913Z,4.50
2023-01-04T19:13:11.557Z,3.20
2023-01-04T19:18:14.206Z,5.00
2023-01-04T19:23:17.235Z,4.40
2023-01-04T19:28:19.951Z,4.90
2023-01-04T19:33:22.599Z,4.00
2023-01-04T19:38:25.283Z,6.70
2023-01-04T19:43:28.059Z,5.40
2023-01-04T19:48:31.063Z,4.70
2023-01-04T19:53:33.886Z,3.10
2023-01-04T19:58:37.632Z,4.50
2023-01-04T20:03:41.924Z,4.90
2023-01-04T20:08:44.740Z,5.10
2023-01-04T20:13:47.404Z,5.80
2023-01-04T20:18:50.027Z,6.90
2023-01-04T20:23:52.770Z,6.60
2023-01-04T20:28:55.684Z,5.10
2023-01-04T20:33:58.419Z,6.10
2023-01-04T20:39:02.443Z,5.80
2023-01-04T20:44:05.230Z,5.30
2023-01-04T20:49:08.430Z,5.00
2023-01-04T20:54:11.116Z,6.10
2023-01-04T20:59:14.164Z,5.30
2023-01-04T21:04:17.665Z,5.40
2023-01-04T21:09:20.368Z,4.30
2023-01-04T21:14:24.651Z,4.60
2023-01-04T21:19:27.287Z,3.80
2023-01-04T21:24:33.373Z,4.40
2023-01-04T21:44:43.635Z,4.50
2023-01-04T21:49:46.304Z,4.30
2023-01-04T21:54:49.001Z,4.20
2023-01-04T21:59:51.909Z,5.20
2023-01-04T22:04:54.639Z,5.30
2023-01-04T22:09:57.939Z,4.90
2023-01-04T22:15:00.792Z,5.30
2023-01-04T22:20:03.731Z,5.30
2023-01-04T22:25:06.609Z,5.50
2023-01-04T22:30:09.827Z,5.70
2023-01-04T22:35:12.538Z,4.20
2023-01-04T22:40:15.583Z,5.50
2023-01-04T22:45:18.298Z,5.20
2023-01-04T22:50:20.997Z,5.10
2023-01-04T22:55:23.796Z,5.00
2023-01-04T23:00:26.484Z,4.30
2023-01-04T23:05:29.863Z,5.50
2023-01-04T23:10:32.866Z,5.30
2023-01-04T23:15:38.420Z,5.30
2023-01-04T23:21:18.378Z,4.70
2023-01-04T23:26:23.101Z,2.60
2023-01-04T23:31:28.431Z,4.90
2023-01-04T23:36:36.960Z,3.20
2023-01-04T23:41:42.589Z,5.40
2023-01-04T23:46:46.173Z,5.10
2023-01-04T23:51:49.215Z,3.50
2023-01-04T23:56:51.948Z,4.10
